sensor_id;sensor_type;location;lat;lon;timestamp;P1;durP1;ratioP1;P2;durP2;ratioP2
25049;SDS011;13046;49.814;9.918;2022-07-25T00:00:44;14.07;;;12.77;;
25049;SDS011;13046;49.814;9.918;2022-07-25T00:03:10;14.63;;;13.23;;
25049;SDS011;13046;49.814;9.918;2022-07-25T00:05:37;13.05;;;11.85;;
25049;SDS011;13046;49.814;9.918;2022-07-25T00:08:03;14.30;;;13.02;;
25049;SDS011;13046;49.814;9.918;2022-07-25T00:10:29;14.48;;;12.98;;
25049;SDS011;13046;49.814;9.918;2022-07-25T00:12:55;14.32;;;12.95;;
25049;SDS011;13046;49.814;9.918;2022-07-25T00:15:21;13.85;;;12.60;;
25049;SDS011;13046;49.814;9.918;2022-07-25T00:17:47;13.18;;;12.07;;
25049;SDS011;13046;49.814;9.918;2022-07-25T00:20:13;13.02;;;11.93;;
25049;SDS011;13046;49.814;9.918;2022-07-25T00:22:39;13.73;;;12.52;;
25049;SDS011;13046;49.814;9.918;2022-07-25T00:25:05;14.65;;;13.35;;
25049;SDS011;13046;49.814;9.918;2022-07-25T00:27:31;13.88;;;12.68;;
25049;SDS011;13046;49.814;9.918;2022-07-25T00:29:56;15.13;;;12.30;;
25049;SDS011;13046;49.814;9.918;2022-07-25T00:32:22;12.75;;;11.63;;
25049;SDS011;13046;49.814;9.918;2022-07-25T00:34:47;14.10;;;12.80;;
25049;SDS011;13046;49.814;9.918;2022-07-25T00:37:13;13.07;;;11.90;;
25049;SDS011;13046;49.814;9.918;2022-07-25T00:39:39;13.70;;;12.55;;
25049;SDS011;13046;49.814;9.918;2022-07-25T00:42:06;13.80;;;12.45;;
25049;SDS011;13046;49.814;9.918;2022-07-25T00:44:32;13.32;;;12.13;;
25049;SDS011;13046;49.814;9.918;2022-07-25T00:46:58;13.88;;;12.57;;
25049;SDS011;13046;49.814;9.918;2022-07-25T00:49:24;12.60;;;11.32;;
25049;SDS011;13046;49.814;9.918;2022-07-25T00:51:51;14.05;;;12.95;;
25049;SDS011;13046;49.814;9.918;2022-07-25T00:54:17;13.50;;;12.40;;
25049;SDS011;13046;49.814;9.918;2022-07-25T00:56:43;15.70;;;14.40;;
25049;SDS011;13046;49.814;9.918;2022-07-25T00:59:10;13.98;;;12.77;;
25049;SDS011;13046;49.814;9.918;2022-07-25T01:01:36;13.80;;;12.40;;
25049;SDS011;13046;49.814;9.918;2022-07-25T01:04:02;12.90;;;11.70;;
25049;SDS011;13046;49.814;9.918;2022-07-25T01:06:29;13.75;;;12.55;;
25049;SDS011;13046;49.814;9.918;2022-07-25T01:08:55;14.32;;;13.02;;
25049;SDS011;13046;49.814;9.918;2022-07-25T01:11:21;13.75;;;12.55;;
25049;SDS011;13046;49.814;9.918;2022-07-25T01:13:47;13.70;;;12.38;;
25049;SDS011;13046;49.814;9.918;2022-07-25T01:16:13;12.73;;;11.52;;
25049;SDS011;13046;49.814;9.918;2022-07-25T01:18:40;13.82;;;12.50;;
25049;SDS011;13046;49.814;9.918;2022-07-25T01:21:06;12.75;;;11.65;;
25049;SDS011;13046;49.814;9.918;2022-07-25T01:23:32;13.32;;;11.98;;
25049;SDS011;13046;49.814;9.918;2022-07-25T01:25:58;13.23;;;12.13;;
25049;SDS011;13046;49.814;9.918;2022-07-25T01:28:24;13.43;;;12.10;;
25049;SDS011;13046;49.814;9.918;2022-07-25T01:30:50;13.68;;;12.52;;
25049;SDS011;13046;49.814;9.918;2022-07-25T01:33:17;13.45;;;12.25;;
25049;SDS011;13046;49.814;9.918;2022-07-25T01:35:44;14.43;;;13.15;;
25049;SDS011;13046;49.814;9.918;2022-07-25T01:38:10;14.05;;;12.77;;
25049;SDS011;13046;49.814;9.918;2022-07-25T01:40:37;14.70;;;13.30;;
25049;SDS011;13046;49.814;9.918;2022-07-25T01:43:03;13.93;;;12.73;;
25049;SDS011;13046;49.814;9.918;2022-07-25T01:45:29;13.65;;;12.32;;
25049;SDS011;13046;49.814;9.918;2022-07-25T01:47:55;14.18;;;12.75;;
25049;SDS011;13046;49.814;9.918;2022-07-25T01:50:21;14.38;;;12.90;;
25049;SDS011;13046;49.814;9.918;2022-07-25T01:52:47;13.02;;;11.85;;
25049;SDS011;13046;49.814;9.918;2022-07-25T01:55:13;14.57;;;12.55;;
25049;SDS011;13046;49.814;9.918;2022-07-25T01:57:39;14.43;;;13.02;;
25049;SDS011;13046;49.814;9.918;2022-07-25T02:00:08;13.85;;;12.65;;
25049;SDS011;13046;49.814;9.918;2022-07-25T02:02:41;13.67;;;12.37;;
25049;SDS011;13046;49.814;9.918;2022-07-25T02:05:08;13.80;;;12.50;;
25049;SDS011;13046;49.814;9.918;2022-07-25T02:07:34;14.32;;;13.02;;
25049;SDS011;13046;49.814;9.918;2022-07-25T02:10:00;14.18;;;12.90;;
25049;SDS011;13046;49.814;9.918;2022-07-25T02:12:27;14.00;;;12.70;;
25049;SDS011;13046;49.814;9.918;2022-07-25T02:14:53;14.90;;;13.60;;
25049;SDS011;13046;49.814;9.918;2022-07-25T02:17:19;14.35;;;13.15;;
25049;SDS011;13046;49.814;9.918;2022-07-25T02:19:45;13.70;;;12.52;;
25049;SDS011;13046;49.814;9.918;2022-07-25T02:22:11;13.80;;;12.60;;
25049;SDS011;13046;49.814;9.918;2022-07-25T02:24:37;14.82;;;13.50;;
25049;SDS011;13046;49.814;9.918;2022-07-25T02:27:03;15.57;;;13.98;;
25049;SDS011;13046;49.814;9.918;2022-07-25T02:29:29;14.23;;;12.93;;
25049;SDS011;13046;49.814;9.918;2022-07-25T02:31:56;13.75;;;12.55;;
25049;SDS011;13046;49.814;9.918;2022-07-25T02:34:22;15.43;;;14.13;;
25049;SDS011;13046;49.814;9.918;2022-07-25T02:36:48;13.93;;;12.63;;
25049;SDS011;13046;49.814;9.918;2022-07-25T02:39:14;14.73;;;13.40;;
25049;SDS011;13046;49.814;9.918;2022-07-25T02:41:41;14.88;;;13.48;;
25049;SDS011;13046;49.814;9.918;2022-07-25T02:44:07;15.68;;;14.27;;
25049;SDS011;13046;49.814;9.918;2022-07-25T02:46:33;13.80;;;12.50;;
25049;SDS011;13046;49.814;9.918;2022-07-25T02:48:59;13.02;;;11.93;;
25049;SDS011;13046;49.814;9.918;2022-07-25T02:51:25;14.10;;;12.77;;
25049;SDS011;13046;49.814;9.918;2022-07-25T02:53:51;13.70;;;12.40;;
25049;SDS011;13046;49.814;9.918;2022-07-25T02:56:17;14.20;;;12.77;;
25049;SDS011;13046;49.814;9.918;2022-07-25T02:58:43;15.68;;;14.27;;
25049;SDS011;13046;49.814;9.918;2022-07-25T03:01:10;16.50;;;15.10;;
25049;SDS011;13046;49.814;9.918;2022-07-25T03:03:36;15.18;;;13.55;;
25049;SDS011;13046;49.814;9.918;2022-07-25T03:06:02;13.68;;;12.50;;
25049;SDS011;13046;49.814;9.918;2022-07-25T03:08:29;14.65;;;13.23;;
25049;SDS011;13046;49.814;9.918;2022-07-25T03:10:55;13.90;;;12.68;;
25049;SDS011;13046;49.814;9.918;2022-07-25T03:13:21;13.38;;;12.18;;
25049;SDS011;13046;49.814;9.918;2022-07-25T03:15:47;14.70;;;13.40;;
25049;SDS011;13046;49.814;9.918;2022-07-25T03:18:13;14.52;;;13.13;;
25049;SDS011;13046;49.814;9.918;2022-07-25T03:20:39;13.77;;;12.45;;
25049;SDS011;13046;49.814;9.918;2022-07-25T03:23:05;13.88;;;12.68;;
25049;SDS011;13046;49.814;9.918;2022-07-25T03:25:31;13.90;;;12.68;;
25049;SDS011;13046;49.814;9.918;2022-07-25T03:27:57;13.77;;;12.50;;
25049;SDS011;13046;49.814;9.918;2022-07-25T03:30:23;14.35;;;13.13;;
25049;SDS011;13046;49.814;9.918;2022-07-25T03:32:49;13.57;;;12.27;;
25049;SDS011;13046;49.814;9.918;2022-07-25T03:35:15;17.40;;;13.82;;
25049;SDS011;13046;49.814;9.918;2022-07-25T03:37:41;15.93;;;14.32;;
25049;SDS011;13046;49.814;9.918;2022-07-25T03:40:07;16.08;;;14.63;;
25049;SDS011;13046;49.814;9.918;2022-07-25T03:42:33;14.77;;;13.23;;
25049;SDS011;13046;49.814;9.918;2022-07-25T03:45:00;13.77;;;12.57;;
25049;SDS011;13046;49.814;9.918;2022-07-25T03:47:26;14.10;;;12.38;;
25049;SDS011;13046;49.814;9.918;2022-07-25T03:49:52;14.73;;;13.40;;
25049;SDS011;13046;49.814;9.918;2022-07-25T03:52:18;15.60;;;14.13;;
25049;SDS011;13046;49.814;9.918;2022-07-25T03:54:44;14.23;;;12.95;;
25049;SDS011;13046;49.814;9.918;2022-07-25T03:57:10;13.88;;;12.65;;
25049;SDS011;13046;49.814;9.918;2022-07-25T03:59:36;19.50;;;14.23;;
25049;SDS011;13046;49.814;9.918;2022-07-25T04:02:03;14.93;;;13.45;;
25049;SDS011;13046;49.814;9.918;2022-07-25T04:04:29;14.60;;;13.20;;
25049;SDS011;13046;49.814;9.918;2022-07-25T04:06:55;14.02;;;12.75;;
25049;SDS011;13046;49.814;9.918;2022-07-25T04:09:21;15.15;;;13.65;;
25049;SDS011;13046;49.814;9.918;2022-07-25T04:11:47;14.32;;;13.02;;
25049;SDS011;13046;49.814;9.918;2022-07-25T04:14:13;14.32;;;13.02;;
25049;SDS011;13046;49.814;9.918;2022-07-25T04:16:40;14.07;;;12.80;;
25049;SDS011;13046;49.814;9.918;2022-07-25T04:19:06;16.75;;;13.82;;
25049;SDS011;13046;49.814;9.918;2022-07-25T04:21:32;13.77;;;12.43;;
25049;SDS011;13046;49.814;9.918;2022-07-25T04:23:59;18.13;;;16.27;;
25049;SDS011;13046;49.814;9.918;2022-07-25T04:26:25;14.30;;;12.88;;
25049;SDS011;13046;49.814;9.918;2022-07-25T04:28:51;14.55;;;13.25;;
25049;SDS011;13046;49.814;9.918;2022-07-25T04:31:17;14.98;;;13.57;;
25049;SDS011;13046;49.814;9.918;2022-07-25T04:33:43;14.05;;;12.75;;
25049;SDS011;13046;49.814;9.918;2022-07-25T04:36:10;14.82;;;13.43;;
25049;SDS011;13046;49.814;9.918;2022-07-25T04:38:36;15.07;;;13.32;;
25049;SDS011;13046;49.814;9.918;2022-07-25T04:41:02;14.70;;;13.20;;
25049;SDS011;13046;49.814;9.918;2022-07-25T04:43:28;14.63;;;13.05;;
25049;SDS011;13046;49.814;9.918;2022-07-25T04:45:54;15.15;;;13.57;;
25049;SDS011;13046;49.814;9.918;2022-07-25T04:48:20;16.27;;;14.77;;
25049;SDS011;13046;49.814;9.918;2022-07-25T04:50:46;16.00;;;12.98;;
25049;SDS011;13046;49.814;9.918;2022-07-25T04:53:12;14.90;;;13.40;;
25049;SDS011;13046;49.814;9.918;2022-07-25T04:55:38;15.13;;;13.68;;
25049;SDS011;13046;49.814;9.918;2022-07-25T04:58:05;16.58;;;14.88;;
25049;SDS011;13046;49.814;9.918;2022-07-25T05:00:31;15.48;;;13.98;;
25049;SDS011;13046;49.814;9.918;2022-07-25T05:02:57;15.10;;;13.68;;
25049;SDS011;13046;49.814;9.918;2022-07-25T05:05:23;16.67;;;14.98;;
25049;SDS011;13046;49.814;9.918;2022-07-25T05:07:53;13.98;;;12.25;;
25049;SDS011;13046;49.814;9.918;2022-07-25T05:10:20;16.05;;;14.55;;
25049;SDS011;13046;49.814;9.918;2022-07-25T05:12:46;14.68;;;13.38;;
25049;SDS011;13046;49.814;9.918;2022-07-25T05:15:12;14.38;;;13.07;;
25049;SDS011;13046;49.814;9.918;2022-07-25T05:17:38;15.57;;;14.07;;
25049;SDS011;13046;49.814;9.918;2022-07-25T05:20:04;14.57;;;13.15;;
25049;SDS011;13046;49.814;9.918;2022-07-25T05:22:30;15.00;;;13.50;;
25049;SDS011;13046;49.814;9.918;2022-07-25T05:24:56;15.48;;;13.85;;
25049;SDS011;13046;49.814;9.918;2022-07-25T05:27:23;16.02;;;13.30;;
25049;SDS011;13046;49.814;9.918;2022-07-25T05:29:49;13.73;;;12.43;;
25049;SDS011;13046;49.814;9.918;2022-07-25T05:32:15;13.70;;;12.40;;
25049;SDS011;13046;49.814;9.918;2022-07-25T05:34:41;14.65;;;13.15;;
25049;SDS011;13046;49.814;9.918;2022-07-25T05:37:07;14.52;;;13.13;;
25049;SDS011;13046;49.814;9.918;2022-07-25T05:39:33;14.85;;;13.52;;
25049;SDS011;13046;49.814;9.918;2022-07-25T05:42:01;15.00;;;12.88;;
25049;SDS011;13046;49.814;9.918;2022-07-25T05:44:27;14.48;;;13.20;;
25049;SDS011;13046;49.814;9.918;2022-07-25T05:46:53;14.57;;;13.25;;
25049;SDS011;13046;49.814;9.918;2022-07-25T05:49:19;14.55;;;13.10;;
25049;SDS011;13046;49.814;9.918;2022-07-25T05:51:45;15.73;;;13.52;;
25049;SDS011;13046;49.814;9.918;2022-07-25T05:54:11;13.75;;;12.35;;
25049;SDS011;13046;49.814;9.918;2022-07-25T05:56:37;13.55;;;12.25;;
25049;SDS011;13046;49.814;9.918;2022-07-25T05:59:03;16.27;;;14.55;;
25049;SDS011;13046;49.814;9.918;2022-07-25T06:01:29;15.20;;;13.90;;
25049;SDS011;13046;49.814;9.918;2022-07-25T06:03:55;14.65;;;12.95;;
25049;SDS011;13046;49.814;9.918;2022-07-25T06:06:21;15.50;;;13.88;;
25049;SDS011;13046;49.814;9.918;2022-07-25T06:08:47;12.88;;;11.57;;
25049;SDS011;13046;49.814;9.918;2022-07-25T06:11:13;14.85;;;13.45;;
25049;SDS011;13046;49.814;9.918;2022-07-25T06:13:39;13.75;;;12.45;;
25049;SDS011;13046;49.814;9.918;2022-07-25T06:16:05;14.38;;;13.10;;
25049;SDS011;13046;49.814;9.918;2022-07-25T06:18:31;15.25;;;14.00;;
25049;SDS011;13046;49.814;9.918;2022-07-25T06:20:57;15.57;;;13.68;;
25049;SDS011;13046;49.814;9.918;2022-07-25T06:23:23;14.50;;;13.13;;
25049;SDS011;13046;49.814;9.918;2022-07-25T06:25:49;15.35;;;13.82;;
25049;SDS011;13046;49.814;9.918;2022-07-25T06:28:15;14.50;;;13.02;;
25049;SDS011;13046;49.814;9.918;2022-07-25T06:30:45;15.75;;;13.95;;
25049;SDS011;13046;49.814;9.918;2022-07-25T06:33:11;15.43;;;13.90;;
25049;SDS011;13046;49.814;9.918;2022-07-25T06:35:37;16.08;;;14.43;;
25049;SDS011;13046;49.814;9.918;2022-07-25T06:38:03;14.07;;;12.82;;
25049;SDS011;13046;49.814;9.918;2022-07-25T06:40:29;15.50;;;14.00;;
25049;SDS011;13046;49.814;9.918;2022-07-25T06:42:55;17.30;;;13.82;;
25049;SDS011;13046;49.814;9.918;2022-07-25T06:45:20;15.70;;;13.27;;
25049;SDS011;13046;49.814;9.918;2022-07-25T06:47:46;14.50;;;13.18;;
25049;SDS011;13046;49.814;9.918;2022-07-25T06:50:13;16.95;;;14.15;;
25049;SDS011;13046;49.814;9.918;2022-07-25T06:52:39;15.45;;;13.98;;
25049;SDS011;13046;49.814;9.918;2022-07-25T06:55:06;15.13;;;13.63;;
25049;SDS011;13046;49.814;9.918;2022-07-25T06:57:32;15.25;;;13.95;;
25049;SDS011;13046;49.814;9.918;2022-07-25T06:59:58;15.00;;;13.60;;
25049;SDS011;13046;49.814;9.918;2022-07-25T07:02:25;17.30;;;14.30;;
25049;SDS011;13046;49.814;9.918;2022-07-25T07:04:51;14.70;;;13.40;;
25049;SDS011;13046;49.814;9.918;2022-07-25T07:07:17;15.48;;;14.07;;
25049;SDS011;13046;49.814;9.918;2022-07-25T07:09:43;15.63;;;14.25;;
25049;SDS011;13046;49.814;9.918;2022-07-25T07:12:09;15.85;;;14.48;;
25049;SDS011;13046;49.814;9.918;2022-07-25T07:14:35;16.38;;;14.73;;
25049;SDS011;13046;49.814;9.918;2022-07-25T07:17:02;14.82;;;13.27;;
25049;SDS011;13046;49.814;9.918;2022-07-25T07:19:28;16.52;;;15.00;;
25049;SDS011;13046;49.814;9.918;2022-07-25T07:21:54;15.57;;;14.02;;
25049;SDS011;13046;49.814;9.918;2022-07-25T07:24:20;14.48;;;13.32;;
25049;SDS011;13046;49.814;9.918;2022-07-25T07:26:47;14.07;;;12.98;;
25049;SDS011;13046;49.814;9.918;2022-07-25T07:29:13;15.98;;;14.48;;
25049;SDS011;13046;49.814;9.918;2022-07-25T07:31:39;14.93;;;13.65;;
25049;SDS011;13046;49.814;9.918;2022-07-25T07:34:05;15.98;;;14.63;;
25049;SDS011;13046;49.814;9.918;2022-07-25T07:36:31;16.38;;;14.95;;
25049;SDS011;13046;49.814;9.918;2022-07-25T07:38:57;15.27;;;13.77;;
25049;SDS011;13046;49.814;9.918;2022-07-25T07:41:23;15.35;;;13.85;;
25049;SDS011;13046;49.814;9.918;2022-07-25T07:43:50;14.40;;;13.07;;
25049;SDS011;13046;49.814;9.918;2022-07-25T07:46:16;16.05;;;14.57;;
25049;SDS011;13046;49.814;9.918;2022-07-25T07:48:42;15.65;;;13.43;;
25049;SDS011;13046;49.814;9.918;2022-07-25T07:51:08;15.45;;;14.07;;
25049;SDS011;13046;49.814;9.918;2022-07-25T07:53:34;15.45;;;14.05;;
25049;SDS011;13046;49.814;9.918;2022-07-25T07:56:18;16.63;;;13.68;;
25049;SDS011;13046;49.814;9.918;2022-07-25T07:58:45;15.63;;;13.95;;
25049;SDS011;13046;49.814;9.918;2022-07-25T08:01:11;13.70;;;12.40;;
25049;SDS011;13046;49.814;9.918;2022-07-25T08:03:37;14.77;;;13.48;;
25049;SDS011;13046;49.814;9.918;2022-07-25T08:06:03;14.30;;;13.00;;
25049;SDS011;13046;49.814;9.918;2022-07-25T08:08:29;14.13;;;12.93;;
25049;SDS011;13046;49.814;9.918;2022-07-25T08:10:55;14.70;;;13.50;;
25049;SDS011;13046;49.814;9.918;2022-07-25T08:13:29;14.57;;;13.13;;
25049;SDS011;13046;49.814;9.918;2022-07-25T08:15:56;16.45;;;14.18;;
25049;SDS011;13046;49.814;9.918;2022-07-25T08:18:22;13.93;;;12.68;;
25049;SDS011;13046;49.814;9.918;2022-07-25T08:20:48;12.95;;;11.77;;
25049;SDS011;13046;49.814;9.918;2022-07-25T08:23:15;15.02;;;13.77;;
25049;SDS011;13046;49.814;9.918;2022-07-25T08:25:41;14.15;;;12.95;;
25049;SDS011;13046;49.814;9.918;2022-07-25T08:28:08;13.57;;;12.40;;
25049;SDS011;13046;49.814;9.918;2022-07-25T08:30:35;13.88;;;12.77;;
25049;SDS011;13046;49.814;9.918;2022-07-25T08:33:02;15.45;;;14.05;;
25049;SDS011;13046;49.814;9.918;2022-07-25T08:35:29;14.10;;;12.85;;
25049;SDS011;13046;49.814;9.918;2022-07-25T08:37:55;15.38;;;13.82;;
25049;SDS011;13046;49.814;9.918;2022-07-25T08:40:22;14.40;;;13.05;;
25049;SDS011;13046;49.814;9.918;2022-07-25T08:42:49;14.10;;;12.68;;
25049;SDS011;13046;49.814;9.918;2022-07-25T08:45:16;15.02;;;13.60;;
25049;SDS011;13046;49.814;9.918;2022-07-25T08:47:43;13.93;;;12.60;;
25049;SDS011;13046;49.814;9.918;2022-07-25T08:50:12;17.73;;;13.02;;
25049;SDS011;13046;49.814;9.918;2022-07-25T08:52:38;12.88;;;11.65;;
25049;SDS011;13046;49.814;9.918;2022-07-25T08:55:05;15.57;;;12.90;;
25049;SDS011;13046;49.814;9.918;2022-07-25T08:57:33;14.07;;;12.80;;
25049;SDS011;13046;49.814;9.918;2022-07-25T09:00:00;12.75;;;11.55;;
25049;SDS011;13046;49.814;9.918;2022-07-25T09:02:26;13.32;;;11.93;;
25049;SDS011;13046;49.814;9.918;2022-07-25T09:04:56;13.35;;;12.13;;
25049;SDS011;13046;49.814;9.918;2022-07-25T09:10:10;13.45;;;11.52;;
25049;SDS011;13046;49.814;9.918;2022-07-25T09:12:37;12.80;;;11.80;;
25049;SDS011;13046;49.814;9.918;2022-07-25T09:15:04;12.18;;;11.07;;
25049;SDS011;13046;49.814;9.918;2022-07-25T09:17:30;12.57;;;11.55;;
25049;SDS011;13046;49.814;9.918;2022-07-25T09:19:56;12.48;;;11.55;;
25049;SDS011;13046;49.814;9.918;2022-07-25T09:22:22;11.27;;;10.38;;
25049;SDS011;13046;49.814;9.918;2022-07-25T09:24:48;12.50;;;11.32;;
25049;SDS011;13046;49.814;9.918;2022-07-25T09:27:14;11.80;;;10.90;;
25049;SDS011;13046;49.814;9.918;2022-07-25T09:29:41;12.70;;;11.25;;
25049;SDS011;13046;49.814;9.918;2022-07-25T09:32:19;12.68;;;11.45;;
25049;SDS011;13046;49.814;9.918;2022-07-25T09:34:47;12.77;;;11.27;;
25049;SDS011;13046;49.814;9.918;2022-07-25T09:37:14;12.30;;;11.30;;
25049;SDS011;13046;49.814;9.918;2022-07-25T09:39:43;12.88;;;11.45;;
25049;SDS011;13046;49.814;9.918;2022-07-25T09:44:59;11.68;;;10.75;;
25049;SDS011;13046;49.814;9.918;2022-07-25T09:47:31;12.23;;;11.23;;
25049;SDS011;13046;49.814;9.918;2022-07-25T09:49:58;14.50;;;11.27;;
25049;SDS011;13046;49.814;9.918;2022-07-25T09:52:24;12.38;;;11.38;;
25049;SDS011;13046;49.814;9.918;2022-07-25T09:54:50;12.40;;;11.20;;
25049;SDS011;13046;49.814;9.918;2022-07-25T09:57:16;12.55;;;11.40;;
25049;SDS011;13046;49.814;9.918;2022-07-25T09:59:42;12.15;;;10.82;;
25049;SDS011;13046;49.814;9.918;2022-07-25T10:05:13;11.35;;;10.45;;
25049;SDS011;13046;49.814;9.918;2022-07-25T10:08:06;11.63;;;10.63;;
25049;SDS011;13046;49.814;9.918;2022-07-25T10:10:36;12.57;;;11.55;;
25049;SDS011;13046;49.814;9.918;2022-07-25T10:13:14;12.65;;;11.57;;
25049;SDS011;13046;49.814;9.918;2022-07-25T10:15:51;10.43;;;9.45;;
25049;SDS011;13046;49.814;9.918;2022-07-25T10:18:18;11.65;;;10.70;;
25049;SDS011;13046;49.814;9.918;2022-07-25T10:20:45;10.20;;;9.40;;
25049;SDS011;13046;49.814;9.918;2022-07-25T10:23:19;11.65;;;10.60;;
25049;SDS011;13046;49.814;9.918;2022-07-25T10:28:41;10.35;;;9.57;;
25049;SDS011;13046;49.814;9.918;2022-07-25T10:31:15;10.20;;;9.30;;
25049;SDS011;13046;49.814;9.918;2022-07-25T10:33:53;10.25;;;9.45;;
25049;SDS011;13046;49.814;9.918;2022-07-25T10:36:26;9.77;;;8.88;;
25049;SDS011;13046;49.814;9.918;2022-07-25T10:39:06;9.15;;;8.38;;
25049;SDS011;13046;49.814;9.918;2022-07-25T10:41:37;10.02;;;9.27;;
25049;SDS011;13046;49.814;9.918;2022-07-25T10:44:09;9.80;;;8.98;;
25049;SDS011;13046;49.814;9.918;2022-07-25T10:46:36;9.80;;;8.97;;
25049;SDS011;13046;49.814;9.918;2022-07-25T10:49:03;9.65;;;8.75;;
25049;SDS011;13046;49.814;9.918;2022-07-25T10:51:35;10.25;;;9.48;;
25049;SDS011;13046;49.814;9.918;2022-07-25T10:54:11;10.98;;;9.88;;
25049;SDS011;13046;49.814;9.918;2022-07-25T10:56:53;9.82;;;9.05;;
25049;SDS011;13046;49.814;9.918;2022-07-25T11:02:01;10.95;;;10.15;;
25049;SDS011;13046;49.814;9.918;2022-07-25T11:04:28;9.43;;;8.70;;
25049;SDS011;13046;49.814;9.918;2022-07-25T11:06:55;9.70;;;9.00;;
25049;SDS011;13046;49.814;9.918;2022-07-25T11:09:22;9.02;;;8.27;;
25049;SDS011;13046;49.814;9.918;2022-07-25T11:11:50;9.05;;;8.27;;
25049;SDS011;13046;49.814;9.918;2022-07-25T11:14:19;9.50;;;8.65;;
25049;SDS011;13046;49.814;9.918;2022-07-25T11:17:13;9.85;;;9.00;;
25049;SDS011;13046;49.814;9.918;2022-07-25T11:19:51;8.82;;;8.23;;
25049;SDS011;13046;49.814;9.918;2022-07-25T11:22:28;8.70;;;7.97;;
25049;SDS011;13046;49.814;9.918;2022-07-25T11:24:55;8.93;;;8.20;;
25049;SDS011;13046;49.814;9.918;2022-07-25T11:27:22;8.00;;;7.40;;
25049;SDS011;13046;49.814;9.918;2022-07-25T11:29:48;8.40;;;7.70;;
25049;SDS011;13046;49.814;9.918;2022-07-25T11:32:14;9.32;;;8.50;;
25049;SDS011;13046;49.814;9.918;2022-07-25T11:34:41;9.73;;;8.98;;
25049;SDS011;13046;49.814;9.918;2022-07-25T11:37:14;8.88;;;8.18;;
25049;SDS011;13046;49.814;9.918;2022-07-25T11:39:41;9.98;;;9.27;;
25049;SDS011;13046;49.814;9.918;2022-07-25T11:42:12;10.00;;;9.00;;
25049;SDS011;13046;49.814;9.918;2022-07-25T11:44:41;10.50;;;9.00;;
25049;SDS011;13046;49.814;9.918;2022-07-25T11:47:20;9.27;;;8.68;;
25049;SDS011;13046;49.814;9.918;2022-07-25T11:49:58;9.70;;;9.00;;
25049;SDS011;13046;49.814;9.918;2022-07-25T11:52:27;9.25;;;8.45;;
25049;SDS011;13046;49.814;9.918;2022-07-25T11:57:41;9.82;;;9.02;;
25049;SDS011;13046;49.814;9.918;2022-07-25T12:00:14;10.68;;;9.65;;
25049;SDS011;13046;49.814;9.918;2022-07-25T12:02:41;9.73;;;9.02;;
25049;SDS011;13046;49.814;9.918;2022-07-25T12:05:09;8.82;;;8.20;;
25049;SDS011;13046;49.814;9.918;2022-07-25T12:07:37;9.68;;;8.98;;
25049;SDS011;13046;49.814;9.918;2022-07-25T12:10:09;9.85;;;8.95;;
25049;SDS011;13046;49.814;9.918;2022-07-25T12:12:47;9.57;;;8.65;;
25049;SDS011;13046;49.814;9.918;2022-07-25T12:15:22;10.20;;;9.35;;
25049;SDS011;13046;49.814;9.918;2022-07-25T12:17:51;9.85;;;9.02;;
25049;SDS011;13046;49.814;9.918;2022-07-25T12:20:18;10.25;;;9.18;;
25049;SDS011;13046;49.814;9.918;2022-07-25T12:22:53;10.88;;;9.82;;
25049;SDS011;13046;49.814;9.918;2022-07-25T12:25:21;10.57;;;9.77;;
25049;SDS011;13046;49.814;9.918;2022-07-25T12:27:47;10.13;;;9.43;;
25049;SDS011;13046;49.814;9.918;2022-07-25T12:30:13;12.20;;;9.95;;
25049;SDS011;13046;49.814;9.918;2022-07-25T12:32:39;11.75;;;10.60;;
25049;SDS011;13046;49.814;9.918;2022-07-25T12:35:06;10.15;;;9.35;;
25049;SDS011;13046;49.814;9.918;2022-07-25T12:37:33;11.90;;;6.38;;
25049;SDS011;13046;49.814;9.918;2022-07-25T12:39:59;7.70;;;6.90;;
25049;SDS011;13046;49.814;9.918;2022-07-25T12:42:25;6.47;;;5.88;;
25049;SDS011;13046;49.814;9.918;2022-07-25T12:44:53;5.88;;;5.47;;
25049;SDS011;13046;49.814;9.918;2022-07-25T12:47:19;8.35;;;7.43;;
25049;SDS011;13046;49.814;9.918;2022-07-25T12:49:45;7.13;;;6.63;;
25049;SDS011;13046;49.814;9.918;2022-07-25T12:52:11;6.30;;;5.80;;
25049;SDS011;13046;49.814;9.918;2022-07-25T12:54:37;6.95;;;6.25;;
25049;SDS011;13046;49.814;9.918;2022-07-25T12:57:02;6.60;;;6.00;;
25049;SDS011;13046;49.814;9.918;2022-07-25T12:59:28;7.30;;;6.72;;
25049;SDS011;13046;49.814;9.918;2022-07-25T13:01:54;6.82;;;6.25;;
25049;SDS011;13046;49.814;9.918;2022-07-25T13:04:20;7.70;;;7.00;;
25049;SDS011;13046;49.814;9.918;2022-07-25T13:06:45;7.72;;;6.90;;
25049;SDS011;13046;49.814;9.918;2022-07-25T13:09:12;7.43;;;6.82;;
25049;SDS011;13046;49.814;9.918;2022-07-25T13:11:38;7.20;;;6.60;;
25049;SDS011;13046;49.814;9.918;2022-07-25T13:14:04;8.20;;;7.40;;
25049;SDS011;13046;49.814;9.918;2022-07-25T13:16:30;7.60;;;7.05;;
25049;SDS011;13046;49.814;9.918;2022-07-25T13:18:55;7.57;;;6.97;;
25049;SDS011;13046;49.814;9.918;2022-07-25T13:21:21;7.25;;;6.75;;
25049;SDS011;13046;49.814;9.918;2022-07-25T13:23:47;8.23;;;7.55;;
25049;SDS011;13046;49.814;9.918;2022-07-25T13:26:13;8.27;;;7.57;;
25049;SDS011;13046;49.814;9.918;2022-07-25T13:28:38;8.23;;;7.63;;
25049;SDS011;13046;49.814;9.918;2022-07-25T13:31:04;8.38;;;7.68;;
25049;SDS011;13046;49.814;9.918;2022-07-25T13:33:31;8.18;;;7.57;;
25049;SDS011;13046;49.814;9.918;2022-07-25T13:35:59;8.43;;;7.82;;
25049;SDS011;13046;49.814;9.918;2022-07-25T13:38:25;9.00;;;8.23;;
25049;SDS011;13046;49.814;9.918;2022-07-25T13:40:51;8.82;;;8.13;;
25049;SDS011;13046;49.814;9.918;2022-07-25T13:43:16;8.80;;;8.07;;
25049;SDS011;13046;49.814;9.918;2022-07-25T13:45:42;8.60;;;7.90;;
25049;SDS011;13046;49.814;9.918;2022-07-25T13:48:08;9.05;;;8.30;;
25049;SDS011;13046;49.814;9.918;2022-07-25T13:50:34;8.65;;;7.88;;
25049;SDS011;13046;49.814;9.918;2022-07-25T13:53:00;8.68;;;7.82;;
25049;SDS011;13046;49.814;9.918;2022-07-25T13:55:28;8.82;;;8.23;;
25049;SDS011;13046;49.814;9.918;2022-07-25T13:57:55;10.35;;;9.32;;
25049;SDS011;13046;49.814;9.918;2022-07-25T14:00:21;9.23;;;8.52;;
25049;SDS011;13046;49.814;9.918;2022-07-25T14:02:47;8.77;;;8.02;;
25049;SDS011;13046;49.814;9.918;2022-07-25T14:05:12;9.82;;;8.77;;
25049;SDS011;13046;49.814;9.918;2022-07-25T14:07:38;10.20;;;9.38;;
25049;SDS011;13046;49.814;9.918;2022-07-25T14:10:04;8.80;;;8.05;;
25049;SDS011;13046;49.814;9.918;2022-07-25T14:12:33;8.30;;;7.70;;
25049;SDS011;13046;49.814;9.918;2022-07-25T14:15:03;9.88;;;8.90;;
25049;SDS011;13046;49.814;9.918;2022-07-25T14:17:31;9.95;;;8.02;;
25049;SDS011;13046;49.814;9.918;2022-07-25T14:19:58;9.77;;;8.77;;
25049;SDS011;13046;49.814;9.918;2022-07-25T14:22:23;8.90;;;8.20;;
25049;SDS011;13046;49.814;9.918;2022-07-25T14:24:49;7.88;;;7.28;;
25049;SDS011;13046;49.814;9.918;2022-07-25T14:27:15;9.38;;;8.50;;
25049;SDS011;13046;49.814;9.918;2022-07-25T14:29:41;8.30;;;7.70;;
25049;SDS011;13046;49.814;9.918;2022-07-25T14:32:06;8.32;;;7.63;;
25049;SDS011;13046;49.814;9.918;2022-07-25T14:34:33;9.57;;;8.82;;
25049;SDS011;13046;49.814;9.918;2022-07-25T14:36:59;9.25;;;8.43;;
25049;SDS011;13046;49.814;9.918;2022-07-25T14:39:26;9.05;;;8.45;;
25049;SDS011;13046;49.814;9.918;2022-07-25T14:41:52;9.80;;;9.10;;
25049;SDS011;13046;49.814;9.918;2022-07-25T14:44:18;9.93;;;9.10;;